sensor_id;sensor_type;location;lat;lon;timestamp;pressure;altitude;pressure_sealevel;temperature;humidity
75740;BME280;64357;51.344;6.550;2023-04-01T00:00:53;98935.25;;;9.79;93.59
75740;BME280;64357;51.344;6.550;2023-04-01T00:03:19;98914.75;;;9.77;94.42
75740;BME280;64357;51.344;6.550;2023-04-01T00:05:46;98925.19;;;9.69;94.82
75740;BME280;64357;51.344;6.550;2023-04-01T00:08:14;98914.31;;;9.71;95.05
75740;BME280;64357;51.344;6.550;2023-04-01T00:10:42;98920.44;;;9.73;94.50
75740;BME280;64357;51.344;6.550;2023-04-01T00:13:10;98922.41;;;9.77;95.24
75740;BME280;64357;51.344;6.550;2023-04-01T00:15:41;98916.41;;;9.65;95.70
75740;BME280;64357;51.344;6.550;2023-04-01T00:18:06;98925.72;;;9.65;95.81
75740;BME280;64357;51.344;6.550;2023-04-01T00:20:32;98925.97;;;9.68;95.93
75740;BME280;64357;51.344;6.550;2023-04-01T00:22:58;98933.28;;;9.63;95.90
75740;BME280;64357;51.344;6.550;2023-04-01T00:25:24;98917.09;;;9.63;96.22
75740;BME280;64357;51.344;6.550;2023-04-01T00:27:49;98914.41;;;9.61;96.27
75740;BME280;64357;51.344;6.550;2023-04-01T00:30:15;98929.16;;;9.53;97.17
75740;BME280;64357;51.344;6.550;2023-04-01T00:32:41;98922.31;;;9.52;96.93
75740;BME280;64357;51.344;6.550;2023-04-01T00:35:07;98909.22;;;9.59;96.78
75740;BME280;64357;51.344;6.550;2023-04-01T00:37:35;98920.88;;;9.68;96.24
75740;BME280;64357;51.344;6.550;2023-04-01T00:40:05;98921.19;;;9.60;96.23
75740;BME280;64357;51.344;6.550;2023-04-01T00:42:31;98905.88;;;9.60;96.05
75740;BME280;64357;51.344;6.550;2023-04-01T00:44:57;98911.34;;;9.53;95.90
75740;BME280;64357;51.344;6.550;2023-04-01T00:47:26;98906.47;;;9.56;96.05
75740;BME280;64357;51.344;6.550;2023-04-01T00:49:53;98897.69;;;9.65;95.81
75740;BME280;64357;51.344;6.550;2023-04-01T00:52:25;98882.84;;;9.71;94.68
75740;BME280;64357;51.344;6.550;2023-04-01T00:54:58;98879.16;;;9.67;94.64
75740;BME280;64357;51.344;6.550;2023-04-01T00:57:31;98877.72;;;9.71;94.43
75740;BME280;64357;51.344;6.550;2023-04-01T00:59:57;98864.78;;;9.68;94.68
75740;BME280;64357;51.344;6.550;2023-04-01T01:02:24;98874.06;;;9.67;93.94
75740;BME280;64357;51.344;6.550;2023-04-01T01:04:50;98870.97;;;9.71;93.71
75740;BME280;64357;51.344;6.550;2023-04-01T01:26:17;98852.69;;;9.65;94.08
75740;BME280;64357;51.344;6.550;2023-04-01T01:32:10;98850.81;;;9.74;93.24
75740;BME280;64357;51.344;6.550;2023-04-01T01:37:17;98850.38;;;9.68;93.55
75740;BME280;64357;51.344;6.550;2023-04-01T01:39:48;98860.78;;;9.71;92.96
75740;BME280;64357;51.344;6.550;2023-04-01T01:42:16;98855.78;;;9.61;94.26
75740;BME280;64357;51.344;6.550;2023-04-01T01:44:45;98865.53;;;9.67;94.02
75740;BME280;64357;51.344;6.550;2023-04-01T01:47:13;98855.13;;;9.64;93.76
75740;BME280;64357;51.344;6.550;2023-04-01T01:49:40;98865.00;;;9.59;94.68
75740;BME280;64357;51.344;6.550;2023-04-01T01:52:07;98861.91;;;9.51;95.29
75740;BME280;64357;51.344;6.550;2023-04-01T01:54:32;98857.25;;;9.57;94.87
75740;BME280;64357;51.344;6.550;2023-04-01T01:57:08;98851.94;;;9.54;94.75
75740;BME280;64357;51.344;6.550;2023-04-01T01:59:37;98855.78;;;9.61;94.91
75740;BME280;64357;51.344;6.550;2023-04-01T02:02:04;98869.56;;;9.63;94.12
75740;BME280;64357;51.344;6.550;2023-04-01T02:04:35;98857.34;;;9.59;94.59
75740;BME280;64357;51.344;6.550;2023-04-01T02:07:16;98853.25;;;9.61;94.43
75740;BME280;64357;51.344;6.550;2023-04-01T02:09:48;98862.91;;;9.53;95.38
75740;BME280;64357;51.344;6.550;2023-04-01T02:12:18;98854.28;;;9.51;95.89
75740;BME280;64357;51.344;6.550;2023-04-01T02:17:18;98855.94;;;9.51;96.22
75740;BME280;64357;51.344;6.550;2023-04-01T02:19:52;98856.25;;;9.44;97.15
75740;BME280;64357;51.344;6.550;2023-04-01T02:22:23;98872.91;;;9.39;97.66
75740;BME280;64357;51.344;6.550;2023-04-01T02:24:53;98871.53;;;9.32;97.79
75740;BME280;64357;51.344;6.550;2023-04-01T02:27:22;98869.69;;;9.29;98.56
75740;BME280;64357;51.344;6.550;2023-04-01T02:29:49;98876.00;;;9.23;98.49
75740;BME280;64357;51.344;6.550;2023-04-01T02:32:16;98879.66;;;9.26;98.44
75740;BME280;64357;51.344;6.550;2023-04-01T02:34:43;98875.44;;;9.27;97.79
75740;BME280;64357;51.344;6.550;2023-04-01T02:37:08;98878.31;;;9.31;97.71
75740;BME280;64357;51.344;6.550;2023-04-01T02:39:36;98874.88;;;9.43;97.51
75740;BME280;64357;51.344;6.550;2023-04-01T02:42:01;98870.91;;;9.46;97.58
75740;BME280;64357;51.344;6.550;2023-04-01T02:44:27;98863.69;;;9.41;97.24
75740;BME280;64357;51.344;6.550;2023-04-01T02:46:52;98883.97;;;9.39;97.17
75740;BME280;64357;51.344;6.550;2023-04-01T02:49:20;98878.00;;;9.39;97.63
75740;BME280;64357;51.344;6.550;2023-04-01T02:51:48;98876.63;;;9.32;97.97
75740;BME280;64357;51.344;6.550;2023-04-01T02:54:14;98888.28;;;9.40;98.33
75740;BME280;64357;51.344;6.550;2023-04-01T02:56:41;98888.19;;;9.39;98.04
75740;BME280;64357;51.344;6.550;2023-04-01T02:59:11;98884.63;;;9.48;98.23
75740;BME280;64357;51.344;6.550;2023-04-01T03:01:38;98895.50;;;9.46;98.45
75740;BME280;64357;51.344;6.550;2023-04-01T03:04:05;98895.25;;;9.43;98.22
75740;BME280;64357;51.344;6.550;2023-04-01T03:06:30;98890.94;;;9.42;98.55
75740;BME280;64357;51.344;6.550;2023-04-01T03:08:56;98884.28;;;9.44;97.97
75740;BME280;64357;51.344;6.550;2023-04-01T03:11:24;98898.69;;;9.43;98.09
75740;BME280;64357;51.344;6.550;2023-04-01T03:13:51;98891.63;;;9.39;98.49
75740;BME280;64357;51.344;6.550;2023-04-01T03:16:19;98895.50;;;9.46;98.49
75740;BME280;64357;51.344;6.550;2023-04-01T03:18:44;98899.13;;;9.38;98.45
75740;BME280;64357;51.344;6.550;2023-04-01T03:21:22;98895.94;;;9.52;98.23
75740;BME280;64357;51.344;6.550;2023-04-01T03:23:50;98894.03;;;9.49;98.09
75740;BME280;64357;51.344;6.550;2023-04-01T03:26:18;98909.56;;;9.52;97.80
75740;BME280;64357;51.344;6.550;2023-04-01T03:28:44;98912.22;;;9.42;97.80
75740;BME280;64357;51.344;6.550;2023-04-01T03:31:10;98905.00;;;9.48;98.18
75740;BME280;64357;51.344;6.550;2023-04-01T03:33:35;98898.81;;;9.56;97.39
75740;BME280;64357;51.344;6.550;2023-04-01T03:36:04;98903.47;;;9.50;98.03
75740;BME280;64357;51.344;6.550;2023-04-01T03:38:35;98909.47;;;9.63;97.13
75740;BME280;64357;51.344;6.550;2023-04-01T03:41:01;98911.13;;;9.62;97.23
75740;BME280;64357;51.344;6.550;2023-04-01T03:43:26;98911.44;;;9.55;97.48
75740;BME280;64357;51.344;6.550;2023-04-01T03:45:54;98914.41;;;9.61;97.29
75740;BME280;64357;51.344;6.550;2023-04-01T03:48:22;98900.34;;;9.54;97.21
75740;BME280;64357;51.344;6.550;2023-04-01T03:50:48;98911.22;;;9.64;96.98
75740;BME280;64357;51.344;6.550;2023-04-01T03:53:13;98913.78;;;9.52;97.23
75740;BME280;64357;51.344;6.550;2023-04-01T03:55:41;98910.69;;;9.68;96.78
75740;BME280;64357;51.344;6.550;2023-04-01T03:58:07;98915.97;;;9.59;97.09
75740;BME280;64357;51.344;6.550;2023-04-01T04:00:35;98913.78;;;9.64;96.88
75740;BME280;64357;51.344;6.550;2023-04-01T04:03:05;98911.31;;;9.65;96.98
75740;BME280;64357;51.344;6.550;2023-04-01T04:05:35;98916.53;;;9.55;97.29
75740;BME280;64357;51.344;6.550;2023-04-01T04:08:00;98929.94;;;9.52;97.03
75740;BME280;64357;51.344;6.550;2023-04-01T04:10:28;98924.75;;;9.63;97.03
75740;BME280;64357;51.344;6.550;2023-04-01T04:12:54;98918.97;;;9.53;96.97
75740;BME280;64357;51.344;6.550;2023-04-01T04:15:20;98928.28;;;9.65;96.50
75740;BME280;64357;51.344;6.550;2023-04-01T04:17:48;98921.84;;;9.70;96.95
75740;BME280;64357;51.344;6.550;2023-04-01T04:20:18;98930.63;;;9.61;96.87
75740;BME280;64357;51.344;6.550;2023-04-01T04:22:43;98923.63;;;9.59;96.95
75740;BME280;64357;51.344;6.550;2023-04-01T04:25:08;98925.63;;;9.51;97.10
75740;BME280;64357;51.344;6.550;2023-04-01T04:27:36;98925.19;;;9.45;97.49
75740;BME280;64357;51.344;6.550;2023-04-01T04:30:03;98930.72;;;9.51;97.51
75740;BME280;64357;51.344;6.550;2023-04-01T04:32:29;98933.63;;;9.56;98.20
75740;BME280;64357;51.344;6.550;2023-04-01T04:34:55;98940.16;;;9.64;97.97
75740;BME280;64357;51.344;6.550;2023-04-01T04:37:20;98936.63;;;9.50;98.30
75740;BME280;64357;51.344;6.550;2023-04-01T04:39:45;98936.91;;;9.55;98.49
75740;BME280;64357;51.344;6.550;2023-04-01T04:42:16;98935.47;;;9.35;99.24
75740;BME280;64357;51.344;6.550;2023-04-01T04:44:41;98936.47;;;9.37;99.83
75740;BME280;64357;51.344;6.550;2023-04-01T04:47:09;98938.28;;;9.50;100.00
75740;BME280;64357;51.344;6.550;2023-04-01T04:49:34;98932.25;;;9.38;100.00
75740;BME280;64357;51.344;6.550;2023-04-01T04:52:02;98935.38;;;9.45;100.00
75740;BME280;64357;51.344;6.550;2023-04-01T04:54:30;98943.03;;;9.57;99.34
75740;BME280;64357;51.344;6.550;2023-04-01T04:56:55;98938.91;;;9.35;99.72
75740;BME280;64357;51.344;6.550;2023-04-01T04:59:21;98937.06;;;9.45;100.00
75740;BME280;64357;51.344;6.550;2023-04-01T05:01:46;98940.81;;;9.38;99.69
75740;BME280;64357;51.344;6.550;2023-04-01T05:04:11;98944.03;;;9.47;100.00
75740;BME280;64357;51.344;6.550;2023-04-01T05:06:37;98949.56;;;9.42;99.81
75740;BME280;64357;51.344;6.550;2023-04-01T05:09:02;98940.34;;;9.32;99.76
75740;BME280;64357;51.344;6.550;2023-04-01T05:11:30;98947.78;;;9.41;99.49
75740;BME280;64357;51.344;6.550;2023-04-01T05:13:57;98944.81;;;9.46;99.29
75740;BME280;64357;51.344;6.550;2023-04-01T05:16:25;98948.22;;;9.35;99.25
75740;BME280;64357;51.344;6.550;2023-04-01T05:18:51;98955.34;;;9.51;99.83
75740;BME280;64357;51.344;6.550;2023-04-01T05:21:18;98955.44;;;9.52;99.21
75740;BME280;64357;51.344;6.550;2023-04-01T05:23:43;98951.47;;;9.44;99.57
75740;BME280;64357;51.344;6.550;2023-04-01T05:26:13;98966.94;;;9.35;99.73
75740;BME280;64357;51.344;6.550;2023-04-01T05:28:39;98964.28;;;9.34;99.84
75740;BME280;64357;51.344;6.550;2023-04-01T05:31:05;98965.50;;;9.27;100.00
75740;BME280;64357;51.344;6.550;2023-04-01T05:33:33;98968.38;;;9.32;99.98
75740;BME280;64357;51.344;6.550;2023-04-01T05:38:35;98963.41;;;9.33;100.00
75740;BME280;64357;51.344;6.550;2023-04-01T05:41:02;98971.13;;;9.23;99.95
75740;BME280;64357;51.344;6.550;2023-04-01T05:43:28;98972.25;;;9.27;100.00
75740;BME280;64357;51.344;6.550;2023-04-01T05:45:55;98978.06;;;9.14;100.00
75740;BME280;64357;51.344;6.550;2023-04-01T05:48:20;98968.16;;;9.29;100.00
75740;BME280;64357;51.344;6.550;2023-04-01T05:50:45;98978.31;;;9.17;100.00
75740;BME280;64357;51.344;6.550;2023-04-01T05:53:11;98976.75;;;9.19;100.00
75740;BME280;64357;51.344;6.550;2023-04-01T05:55:39;98982.56;;;9.28;100.00
75740;BME280;64357;51.344;6.550;2023-04-01T05:58:06;98987.72;;;9.18;100.00
75740;BME280;64357;51.344;6.550;2023-04-01T06:00:31;98986.63;;;9.15;100.00
75740;BME280;64357;51.344;6.550;2023-04-01T06:03:02;98983.97;;;9.25;100.00
75740;BME280;64357;51.344;6.550;2023-04-01T06:05:30;98985.53;;;9.23;100.00
75740;BME280;64357;51.344;6.550;2023-04-01T06:08:01;98987.88;;;9.31;100.00
75740;BME280;64357;51.344;6.550;2023-04-01T06:25:14;99001.34;;;9.19;100.00
75740;BME280;64357;51.344;6.550;2023-04-01T06:30:42;99008.22;;;9.20;100.00
75740;BME280;64357;51.344;6.550;2023-04-01T06:33:30;99009.09;;;9.20;100.00
75740;BME280;64357;51.344;6.550;2023-04-01T06:53:00;99020.38;;;9.12;100.00
75740;BME280;64357;51.344;6.550;2023-04-01T06:55:34;99025.13;;;9.07;100.00
75740;BME280;64357;51.344;6.550;2023-04-01T06:58:04;99031.34;;;9.11;100.00
75740;BME280;64357;51.344;6.550;2023-04-01T07:00:36;99030.16;;;9.18;100.00
75740;BME280;64357;51.344;6.550;2023-04-01T07:03:44;99034.00;;;9.13;100.00
75740;BME280;64357;51.344;6.550;2023-04-01T07:06:23;99040.78;;;9.12;100.00
75740;BME280;64357;51.344;6.550;2023-04-01T07:08:53;99037.44;;;9.13;100.00
75740;BME280;64357;51.344;6.550;2023-04-01T07:11:34;99045.53;;;9.19;100.00
75740;BME280;64357;51.344;6.550;2023-04-01T07:16:37;99046.31;;;9.18;100.00
75740;BME280;64357;51.344;6.550;2023-04-01T07:19:29;99051.63;;;9.10;100.00
75740;BME280;64357;51.344;6.550;2023-04-01T07:24:27;99054.03;;;9.08;100.00
75740;BME280;64357;51.344;6.550;2023-04-01T07:26:57;99065.66;;;9.04;100.00
75740;BME280;64357;51.344;6.550;2023-04-01T07:29:23;99074.19;;;9.05;100.00
75740;BME280;64357;51.344;6.550;2023-04-01T07:37:17;99083.06;;;9.10;100.00
75740;BME280;64357;51.344;6.550;2023-04-01T07:40:05;99081.31;;;9.09;100.00
75740;BME280;64357;51.344;6.550;2023-04-01T07:47:52;99102.47;;;9.20;100.00
75740;BME280;64357;51.344;6.550;2023-04-01T07:53:11;99094.66;;;9.28;100.00
75740;BME280;64357;51.344;6.550;2023-04-01T08:01:44;99101.88;;;9.34;100.00
75740;BME280;64357;51.344;6.550;2023-04-01T08:09:08;99110.13;;;9.20;100.00
75740;BME280;64357;51.344;6.550;2023-04-01T08:12:26;99110.69;;;9.16;100.00
75740;BME280;64357;51.344;6.550;2023-04-01T08:14:59;99117.44;;;9.15;100.00
75740;BME280;64357;51.344;6.550;2023-04-01T08:17:52;99132.72;;;9.15;100.00
75740;BME280;64357;51.344;6.550;2023-04-01T08:20:41;99136.84;;;9.25;100.00
75740;BME280;64357;51.344;6.550;2023-04-01T08:25:40;99144.06;;;9.30;100.00
75740;BME280;64357;51.344;6.550;2023-04-01T08:28:15;99143.00;;;9.39;100.00
75740;BME280;64357;51.344;6.550;2023-04-01T08:30:46;99140.22;;;9.35;100.00
75740;BME280;64357;51.344;6.550;2023-04-01T08:33:25;99144.44;;;9.35;100.00
75740;BME280;64357;51.344;6.550;2023-04-01T08:36:28;99144.78;;;9.40;100.00
75740;BME280;64357;51.344;6.550;2023-04-01T08:47:42;99166.00;;;9.50;100.00
75740;BME280;64357;51.344;6.550;2023-04-01T08:50:36;99164.13;;;9.59;100.00
75740;BME280;64357;51.344;6.550;2023-04-01T08:53:18;99161.06;;;9.64;100.00
75740;BME280;64357;51.344;6.550;2023-04-01T08:56:14;99159.34;;;9.86;100.00
75740;BME280;64357;51.344;6.550;2023-04-01T09:10:28;99180.22;;;9.92;97.49
75740;BME280;64357;51.344;6.550;2023-04-01T09:13:29;99182.34;;;9.98;97.14
75740;BME280;64357;51.344;6.550;2023-04-01T09:16:24;99183.41;;;9.89;96.92
75740;BME280;64357;51.344;6.550;2023-04-01T09:24:39;99195.56;;;10.04;96.82
75740;BME280;64357;51.344;6.550;2023-04-01T09:35:45;99209.31;;;10.18;96.81
75740;BME280;64357;51.344;6.550;2023-04-01T09:38:29;99212.56;;;10.15;97.00
75740;BME280;64357;51.344;6.550;2023-04-01T09:46:43;99223.81;;;10.07;97.13
75740;BME280;64357;51.344;6.550;2023-04-01T09:49:42;99224.84;;;10.09;96.82
75740;BME280;64357;51.344;6.550;2023-04-01T09:52:20;99230.72;;;10.20;96.75
75740;BME280;64357;51.344;6.550;2023-04-01T09:58:16;99244.22;;;10.07;98.43
75740;BME280;64357;51.344;6.550;2023-04-01T10:06:59;99247.06;;;9.88;100.00
75740;BME280;64357;51.344;6.550;2023-04-01T10:15:30;99260.44;;;9.74;100.00
75740;BME280;64357;51.344;6.550;2023-04-01T10:29:11;99269.28;;;9.79;100.00
75740;BME280;64357;51.344;6.550;2023-04-01T10:48:21;99277.75;;;10.11;100.00
75740;BME280;64357;51.344;6.550;2023-04-01T10:51:10;99281.50;;;10.05;100.00
75740;BME280;64357;51.344;6.550;2023-04-01T10:53:49;99280.56;;;10.14;100.00
75740;BME280;64357;51.344;6.550;2023-04-01T10:56:46;99285.47;;;10.01;100.00
75740;BME280;64357;51.344;6.550;2023-04-01T11:05:54;99296.09;;;10.18;100.00
75740;BME280;64357;51.344;6.550;2023-04-01T11:17:23;99310.38;;;10.37;100.00
75740;BME280;64357;51.344;6.550;2023-04-01T11:23:19;99311.09;;;10.25;100.00
75740;BME280;64357;51.344;6.550;2023-04-01T11:25:59;99315.34;;;10.14;100.00
75740;BME280;64357;51.344;6.550;2023-04-01T11:42:55;99346.94;;;10.04;100.00
75740;BME280;64357;51.344;6.550;2023-04-01T11:45:58;99345.19;;;10.03;100.00
75740;BME280;64357;51.344;6.550;2023-04-01T11:54:00;99354.63;;;10.60;100.00
75740;BME280;64357;51.344;6.550;2023-04-01T11:59:39;99352.75;;;10.69;97.46
75740;BME280;64357;51.344;6.550;2023-04-01T12:02:36;99363.41;;;10.63;98.06
75740;BME280;64357;51.344;6.550;2023-04-01T12:08:11;99375.44;;;10.76;97.49
75740;BME280;64357;51.344;6.550;2023-04-01T12:14:03;99378.78;;;10.87;97.09
75740;BME280;64357;51.344;6.550;2023-04-01T12:38:31;99405.31;;;10.44;98.82
75740;BME280;64357;51.344;6.550;2023-04-01T12:43:59;99405.53;;;10.47;98.82
75740;BME280;64357;51.344;6.550;2023-04-01T12:52:10;99407.44;;;10.27;98.13
75740;BME280;64357;51.344;6.550;2023-04-01T12:54:58;99412.94;;;10.22;97.99
75740;BME280;64357;51.344;6.550;2023-04-01T12:58:02;99412.41;;;10.26;98.09
75740;BME280;64357;51.344;6.550;2023-04-01T13:28:27;99447.78;;;10.43;96.59
75740;BME280;64357;51.344;6.550;2023-04-01T13:31:09;99458.06;;;10.55;96.57
75740;BME280;64357;51.344;6.550;2023-04-01T13:33:47;99454.19;;;10.60;96.46
75740;BME280;64357;51.344;6.550;2023-04-01T13:36:36;99455.56;;;10.66;96.52
75740;BME280;64357;51.344;6.550;2023-04-01T13:42:06;99465.78;;;10.66;96.39
75740;BME280;64357;51.344;6.550;2023-04-01T13:44:38;99467.03;;;10.72;96.01
75740;BME280;64357;51.344;6.550;2023-04-01T13:47:30;99462.34;;;10.66;95.41
75740;BME280;64357;51.344;6.550;2023-04-01T14:01:41;99468.41;;;10.56;94.56
75740;BME280;64357;51.344;6.550;2023-04-01T14:07:37;99475.19;;;10.56;94.84
75740;BME280;64357;51.344;6.550;2023-04-01T14:10:40;99482.53;;;10.63;95.45
75740;BME280;64357;51.344;6.550;2023-04-01T14:16:40;99490.31;;;10.43;95.39
75740;BME280;64357;51.344;6.550;2023-04-01T14:21:57;99502.53;;;10.47;95.83
75740;BME280;64357;51.344;6.550;2023-04-01T14:39:38;99511.78;;;10.34;96.71
75740;BME280;64357;51.344;6.550;2023-04-01T14:41:56;99511.69;;;10.33;97.23
75740;BME280;64357;51.344;6.550;2023-04-01T14:52:47;99525.50;;;10.14;97.77
75740;BME280;64357;51.344;6.550;2023-04-01T14:55:28;99526.50;;;10.17;98.16
75740;BME280;64357;51.344;6.550;2023-04-01T14:58:08;99529.44;;;10.21;97.58
75740;BME280;64357;51.344;6.550;2023-04-01T15:03:30;99533.41;;;10.28;97.55
75740;BME280;64357;51.344;6.550;2023-04-01T15:15:04;99544.22;;;10.35;98.39
75740;BME280;64357;51.344;6.550;2023-04-01T15:23:13;99554.81;;;10.20;99.08
75740;BME280;64357;51.344;6.550;2023-04-01T15:26:24;99560.19;;;10.23;99.48
75740;BME280;64357;51.344;6.550;2023-04-01T15:29:21;99556.63;;;10.21;99.26
75740;BME280;64357;51.344;6.550;2023-04-01T15:39:57;99580.13;;;9.96;100.00
75740;BME280;64357;51.344;6.550;2023-04-01T15:45:16;99585.13;;;9.95;100.00
75740;BME280;64357;51.344;6.550;2023-04-01T15:47:44;99587.56;;;9.93;100.00
75740;BME280;64357;51.344;6.550;2023-04-01T16:04:37;99612.28;;;9.84;100.00
75740;BME280;64357;51.344;6.550;2023-04-01T16:16:00;99623.38;;;9.95;100.00
75740;BME280;64357;51.344;6.550;2023-04-01T16:24:38;99640.63;;;9.87;100.00
75740;BME280;64357;51.344;6.550;2023-04-01T16:27:29;99638.19;;;9.88;100.00
75740;BME280;64357;51.344;6.550;2023-04-01T16:35:52;99636.78;;;9.92;100.00
75740;BME280;64357;51.344;6.550;2023-04-01T16:38:47;99651.44;;;9.95;100.00
75740;BME280;64357;51.344;6.550;2023-04-01T16:41:20;99649.00;;;9.96;100.00
75740;BME280;64357;51.344;6.550;2023-04-01T16:43:53;99657.44;;;9.95;100.00
75740;BME280;64357;51.344;6.550;2023-04-01T16:48:59;99660.50;;;10.01;100.00
75740;BME280;64357;51.344;6.550;2023-04-01T16:51:52;99669.56;;;9.98;100.00
75740;BME280;64357;51.344;6.550;2023-04-01T17:02:20;99684.22;;;9.90;100.00
75740;BME280;64357;51.344;6.550;2023-04-01T17:05:01;99686.53;;;9.97;100.00
75740;BME280;64357;51.344;6.550;2023-04-01T17:18:26;99704.13;;;9.84;100.00
75740;BME280;64357;51.344;6.550;2023-04-01T17:29:21;99721.47;;;9.78;100.00
75740;BME280;64357;51.344;6.550;2023-04-01T17:32:09;99721.19;;;9.65;100.00
75740;BME280;64357;51.344;6.550;2023-04-01T17:34:42;99726.41;;;9.66;100.00
75740;BME280;64357;51.344;6.550;2023-04-01T17:40:15;99732.41;;;9.67;100.00
75740;BME280;64357;51.344;6.550;2023-04-01T17:45:49;99753.69;;;9.67;100.00
75740;BME280;64357;51.344;6.550;2023-04-01T17:48:27;99743.50;;;9.67;100.00
75740;BME280;64357;51.344;6.550;2023-04-01T18:07:55;99770.53;;;9.65;100.00
75740;BME280;64357;51.344;6.550;2023-04-01T18:10:25;99780.13;;;9.68;100.00
75740;BME280;64357;51.344;6.550;2023-04-01T18:24:00;99787.84;;;9.59;100.00
75740;BME280;64357;51.344;6.550;2023-04-01T18:26:31;99798.53;;;9.55;100.00
75740;BME280;64357;51.344;6.550;2023-04-01T18:31:49;99811.44;;;9.56;100.00
75740;BME280;64357;51.344;6.550;2023-04-01T18:37:00;99818.56;;;9.50;100.00
75740;BME280;64357;51.344;6.550;2023-04-01T18:45:37;99833.56;;;9.47;100.00
75740;BME280;64357;51.344;6.550;2023-04-01T18:51:43;99845.16;;;9.44;100.00
75740;BME280;64357;51.344;6.550;2023-04-01T18:56:43;99846.78;;;9.33;100.00
75740;BME280;64357;51.344;6.550;2023-04-01T18:59:40;99848.56;;;9.34;100.00
75740;BME280;64357;51.344;6.550;2023-04-01T19:07:50;99859.28;;;9.40;100.00
75740;BME280;64357;51.344;6.550;2023-04-01T19:13:31;99864.63;;;9.33;100.00
75740;BME280;64357;51.344;6.550;2023-04-01T19:25:21;99879.22;;;9.25;100.00
75740;BME280;64357;51.344;6.550;2023-04-01T19:27:53;99880.19;;;9.17;100.00
75740;BME280;64357;51.344;6.550;2023-04-01T19:35:55;99884.88;;;9.13;100.00
75740;BME280;64357;51.344;6.550;2023-04-01T19:41:19;99888.09;;;9.20;100.00
75740;BME280;64357;51.344;6.550;2023-04-01T19:44:07;99900.34;;;9.43;100.00
75740;BME280;64357;51.344;6.550;2023-04-01T19:47:30;99898.72;;;9.54;100.00
75740;BME280;64357;51.344;6.550;2023-04-01T19:52:45;99912.78;;;9.59;100.00
75740;BME280;64357;51.344;6.550;2023-04-01T19:58:26;99922.44;;;9.53;100.00
75740;BME280;64357;51.344;6.550;2023-04-01T20:00:58;99933.28;;;9.50;100.00
75740;BME280;64357;51.344;6.550;2023-04-01T20:06:32;99935.53;;;9.47;100.00
75740;BME280;64357;51.344;6.550;2023-04-01T20:09:14;99951.59;;;9.46;100.00
75740;BME280;64357;51.344;6.550;2023-04-01T20:14:53;99960.28;;;9.48;100.00
75740;BME280;64357;51.344;6.550;2023-04-01T20:25:40;99988.94;;;9.27;100.00
75740;BME280;64357;51.344;6.550;2023-04-01T20:34:19;100004.34;;;9.10;100.00
75740;BME280;64357;51.344;6.550;2023-04-01T20:37:02;100011.09;;;9.09;100.00
75740;BME280;64357;51.344;6.550;2023-04-01T20:48:02;100032.41;;;9.01;100.00
75740;BME280;64357;51.344;6.550;2023-04-01T20:50:46;100037.56;;;8.92;100.00
75740;BME280;64357;51.344;6.550;2023-04-01T20:53:43;100040.88;;;8.91;100.00
75740;BME280;64357;51.344;6.550;2023-04-01T21:07:47;100076.09;;;8.87;100.00
75740;BME280;64357;51.344;6.550;2023-04-01T21:14:07;100092.72;;;8.83;100.00
75740;BME280;64357;51.344;6.550;2023-04-01T21:22:48;100084.75;;;8.44;100.00
75740;BME280;64357;51.344;6.550;2023-04-01T21:26:00;100115.69;;;8.66;100.00
75740;BME280;64357;51.344;6.550;2023-04-01T21:47:02;100158.41;;;8.34;100.00
75740;BME280;64357;51.344;6.550;2023-04-01T22:14:31;100221.50;;;7.77;100.00
75740;BME280;64357;51.344;6.550;2023-04-01T22:23:00;100245.09;;;7.67;100.00
75740;BME280;64357;51.344;6.550;2023-04-01T22:25:49;100233.28;;;7.68;100.00
75740;BME280;64357;51.344;6.550;2023-04-01T22:31:07;100228.78;;;7.57;100.00
75740;BME280;64357;51.344;6.550;2023-04-01T22:43:59;100262.88;;;7.59;100.00
75740;BME280;64357;51.344;6.550;2023-04-01T22:49:17;100277.50;;;7.53;100.00
75740;BME280;64357;51.344;6.550;2023-04-01T22:55:09;100292.41;;;7.49;100.00
75740;BME280;64357;51.344;6.550;2023-04-01T23:03:24;100306.63;;;7.47;100.00
75740;BME280;64357;51.344;6.550;2023-04-01T23:06:00;100303.13;;;7.38;100.00
75740;BME280;64357;51.344;6.550;2023-04-01T23:13:56;100328.34;;;7.28;100.00
75740;BME280;64357;51.344;6.550;2023-04-01T23:16:35;100319.53;;;7.09;100.00
75740;BME280;64357;51.344;6.550;2023-04-01T23:19:27;100333.59;;;7.14;100.00
75740;BME280;64357;51.344;6.550;2023-04-01T23:22:04;100344.22;;;7.10;100.00
75740;BME280;64357;51.344;6.550;2023-04-01T23:24:40;100341.81;;;7.11;100.00
75740;BME280;64357;51.344;6.550;2023-04-01T23:27:39;100350.34;;;7.12;100.00
75740;BME280;64357;51.344;6.550;2023-04-01T23:30:59;100350.44;;;7.05;100.00
75740;BME280;64357;51.344;6.550;2023-04-01T23:36:12;100370.31;;;7.09;100.00
75740;BME280;64357;51.344;6.550;2023-04-01T23:38:42;100372.41;;;6.88;100.00
75740;BME280;64357;51.344;6.550;2023-04-01T23:43:58;100390.34;;;6.90;100.00
75740;BME280;64357;51.344;6.550;2023-04-01T23:46:25;100389.78;;;6.77;100.00
75740;BME280;64357;51.344;6.550;2023-04-01T23:48:52;100406.41;;;6.82;100.00
75740;BME280;64357;51.344;6.550;2023-04-01T23:51:21;100407.97;;;6.88;100.00
75740;BME280;64357;51.344;6.550;2023-04-01T23:54:01;100414.91;;;6.82;100.00
75740;BME280;64357;51.344;6.550;2023-04-01T23:56:45;100418.94;;;6.80;100.00
75740;BME280;64357;51.344;6.550;2023-04-01T23:59:39;100428.00;;;6.78;100.00
